sensor_id;sensor_type;location;lat;lon;timestamp;P1;durP1;ratioP1;P2;durP2;ratioP2
14849;SDS011;7517;48.400;11.770;2023-05-07T00:01:57;2.20;;;1.20;;
14849;SDS011;7517;48.400;11.770;2023-05-07T00:04:24;1.30;;;1.20;;
14849;SDS011;7517;48.400;11.770;2023-05-07T00:06:53;1.40;;;1.30;;
14849;SDS011;7517;48.400;11.770;2023-05-07T00:09:22;1.97;;;1.07;;
14849;SDS011;7517;48.400;11.770;2023-05-07T00:11:49;1.20;;;1.00;;
14849;SDS011;7517;48.400;11.770;2023-05-07T00:14:16;3.53;;;1.10;;
14849;SDS011;7517;48.400;11.770;2023-05-07T00:16:43;1.53;;;1.10;;
14849;SDS011;7517;48.400;11.770;2023-05-07T00:19:11;1.87;;;1.20;;
14849;SDS011;7517;48.400;11.770;2023-05-07T00:21:38;1.30;;;1.20;;
14849;SDS011;7517;48.400;11.770;2023-05-07T00:24:06;1.63;;;1.10;;
14849;SDS011;7517;48.400;11.770;2023-05-07T00:26:34;2.40;;;0.93;;
14849;SDS011;7517;48.400;11.770;2023-05-07T00:29:02;1.33;;;0.90;;
14849;SDS011;7517;48.400;11.770;2023-05-07T00:31:30;1.80;;;0.80;;
14849;SDS011;7517;48.400;11.770;2023-05-07T00:33:57;1.00;;;1.00;;
14849;SDS011;7517;48.400;11.770;2023-05-07T00:36:25;1.13;;;1.03;;
14849;SDS011;7517;48.400;11.770;2023-05-07T00:38:53;0.90;;;0.90;;
14849;SDS011;7517;48.400;11.770;2023-05-07T00:41:21;1.00;;;1.00;;
14849;SDS011;7517;48.400;11.770;2023-05-07T00:43:50;1.73;;;1.07;;
14849;SDS011;7517;48.400;11.770;2023-05-07T00:46:18;0.97;;;0.90;;
14849;SDS011;7517;48.400;11.770;2023-05-07T00:48:48;1.90;;;1.00;;
14849;SDS011;7517;48.400;11.770;2023-05-07T00:51:17;1.87;;;0.90;;
14849;SDS011;7517;48.400;11.770;2023-05-07T00:53:44;0.70;;;0.70;;
14849;SDS011;7517;48.400;11.770;2023-05-07T00:56:13;1.07;;;0.90;;
14849;SDS011;7517;48.400;11.770;2023-05-07T00:58:40;1.17;;;1.10;;
14849;SDS011;7517;48.400;11.770;2023-05-07T01:01:09;1.13;;;0.90;;
14849;SDS011;7517;48.400;11.770;2023-05-07T01:03:36;1.23;;;0.97;;
14849;SDS011;7517;48.400;11.770;2023-05-07T01:06:04;1.80;;;1.00;;
14849;SDS011;7517;48.400;11.770;2023-05-07T01:08:33;2.57;;;1.10;;
14849;SDS011;7517;48.400;11.770;2023-05-07T01:11:04;2.10;;;0.90;;
14849;SDS011;7517;48.400;11.770;2023-05-07T01:13:33;1.40;;;1.30;;
14849;SDS011;7517;48.400;11.770;2023-05-07T01:16:02;1.27;;;1.17;;
14849;SDS011;7517;48.400;11.770;2023-05-07T01:18:35;1.33;;;1.00;;
14849;SDS011;7517;48.400;11.770;2023-05-07T01:21:02;1.47;;;1.03;;
14849;SDS011;7517;48.400;11.770;2023-05-07T01:23:33;1.20;;;1.10;;
14849;SDS011;7517;48.400;11.770;2023-05-07T01:26:01;0.97;;;0.97;;
14849;SDS011;7517;48.400;11.770;2023-05-07T01:28:28;0.90;;;0.90;;
14849;SDS011;7517;48.400;11.770;2023-05-07T01:30:57;1.80;;;1.00;;
14849;SDS011;7517;48.400;11.770;2023-05-07T01:33:29;1.30;;;0.97;;
14849;SDS011;7517;48.400;11.770;2023-05-07T01:36:00;1.33;;;0.87;;
14849;SDS011;7517;48.400;11.770;2023-05-07T01:38:33;1.37;;;1.03;;
14849;SDS011;7517;48.400;11.770;2023-05-07T01:41:04;1.67;;;0.90;;
14849;SDS011;7517;48.400;11.770;2023-05-07T01:43:32;1.20;;;1.10;;
14849;SDS011;7517;48.400;11.770;2023-05-07T01:46:00;1.20;;;1.07;;
14849;SDS011;7517;48.400;11.770;2023-05-07T01:48:29;0.90;;;0.90;;
14849;SDS011;7517;48.400;11.770;2023-05-07T01:50:58;3.67;;;1.27;;
14849;SDS011;7517;48.400;11.770;2023-05-07T01:53:27;1.33;;;1.10;;
14849;SDS011;7517;48.400;11.770;2023-05-07T01:55:55;1.27;;;1.10;;
14849;SDS011;7517;48.400;11.770;2023-05-07T01:58:23;1.10;;;1.00;;
14849;SDS011;7517;48.400;11.770;2023-05-07T02:00:50;1.30;;;1.20;;
14849;SDS011;7517;48.400;11.770;2023-05-07T02:03:17;2.00;;;1.00;;
14849;SDS011;7517;48.400;11.770;2023-05-07T02:05:44;1.10;;;1.00;;
14849;SDS011;7517;48.400;11.770;2023-05-07T02:08:12;1.37;;;1.13;;
14849;SDS011;7517;48.400;11.770;2023-05-07T02:10:39;2.17;;;1.20;;
14849;SDS011;7517;48.400;11.770;2023-05-07T02:13:08;1.07;;;1.00;;
14849;SDS011;7517;48.400;11.770;2023-05-07T02:15:36;1.20;;;1.10;;
14849;SDS011;7517;48.400;11.770;2023-05-07T02:18:04;1.17;;;1.07;;
14849;SDS011;7517;48.400;11.770;2023-05-07T02:20:34;1.73;;;0.87;;
14849;SDS011;7517;48.400;11.770;2023-05-07T02:23:01;1.27;;;1.00;;
14849;SDS011;7517;48.400;11.770;2023-05-07T02:25:29;1.10;;;1.10;;
14849;SDS011;7517;48.400;11.770;2023-05-07T02:27:57;1.00;;;1.00;;
14849;SDS011;7517;48.400;11.770;2023-05-07T02:30:27;1.30;;;1.20;;
14849;SDS011;7517;48.400;11.770;2023-05-07T02:32:54;1.40;;;1.30;;
14849;SDS011;7517;48.400;11.770;2023-05-07T02:35:23;1.40;;;1.30;;
14849;SDS011;7517;48.400;11.770;2023-05-07T02:37:51;1.63;;;1.40;;
14849;SDS011;7517;48.400;11.770;2023-05-07T02:40:18;1.60;;;1.50;;
14849;SDS011;7517;48.400;11.770;2023-05-07T02:42:45;3.27;;;1.60;;
14849;SDS011;7517;48.400;11.770;2023-05-07T02:45:13;1.80;;;1.70;;
14849;SDS011;7517;48.400;11.770;2023-05-07T02:47:42;1.70;;;1.60;;
14849;SDS011;7517;48.400;11.770;2023-05-07T02:50:09;1.60;;;1.50;;
14849;SDS011;7517;48.400;11.770;2023-05-07T02:52:37;1.73;;;1.60;;
14849;SDS011;7517;48.400;11.770;2023-05-07T02:55:05;1.47;;;1.37;;
14849;SDS011;7517;48.400;11.770;2023-05-07T02:57:33;1.73;;;1.50;;
14849;SDS011;7517;48.400;11.770;2023-05-07T03:00:09;1.60;;;1.50;;
14849;SDS011;7517;48.400;11.770;2023-05-07T03:02:39;1.43;;;1.33;;
14849;SDS011;7517;48.400;11.770;2023-05-07T03:05:09;1.87;;;1.73;;
14849;SDS011;7517;48.400;11.770;2023-05-07T03:07:37;1.40;;;1.30;;
14849;SDS011;7517;48.400;11.770;2023-05-07T03:10:04;1.87;;;1.27;;
14849;SDS011;7517;48.400;11.770;2023-05-07T03:12:33;1.60;;;1.50;;
14849;SDS011;7517;48.400;11.770;2023-05-07T03:15:01;1.33;;;1.23;;
14849;SDS011;7517;48.400;11.770;2023-05-07T03:17:29;1.50;;;1.40;;
14849;SDS011;7517;48.400;11.770;2023-05-07T03:19:58;1.57;;;1.47;;
14849;SDS011;7517;48.400;11.770;2023-05-07T03:22:25;1.47;;;1.37;;
14849;SDS011;7517;48.400;11.770;2023-05-07T03:24:52;1.50;;;1.40;;
14849;SDS011;7517;48.400;11.770;2023-05-07T03:27:19;1.70;;;1.60;;
14849;SDS011;7517;48.400;11.770;2023-05-07T03:29:48;1.60;;;1.50;;
14849;SDS011;7517;48.400;11.770;2023-05-07T03:32:15;1.77;;;1.67;;
14849;SDS011;7517;48.400;11.770;2023-05-07T03:34:42;2.43;;;1.60;;
14849;SDS011;7517;48.400;11.770;2023-05-07T03:37:11;1.83;;;1.70;;
14849;SDS011;7517;48.400;11.770;2023-05-07T03:39:38;2.10;;;1.47;;
14849;SDS011;7517;48.400;11.770;2023-05-07T03:42:06;1.90;;;1.57;;
14849;SDS011;7517;48.400;11.770;2023-05-07T03:44:33;1.83;;;1.73;;
14849;SDS011;7517;48.400;11.770;2023-05-07T03:47:01;2.10;;;1.97;;
14849;SDS011;7517;48.400;11.770;2023-05-07T03:49:28;2.97;;;2.10;;
14849;SDS011;7517;48.400;11.770;2023-05-07T03:51:55;1.87;;;1.77;;
14849;SDS011;7517;48.400;11.770;2023-05-07T03:54:24;2.97;;;1.93;;
14849;SDS011;7517;48.400;11.770;2023-05-07T03:56:51;1.97;;;1.83;;
14849;SDS011;7517;48.400;11.770;2023-05-07T03:59:19;1.83;;;1.73;;
14849;SDS011;7517;48.400;11.770;2023-05-07T04:01:46;2.53;;;1.47;;
14849;SDS011;7517;48.400;11.770;2023-05-07T04:04:13;2.00;;;1.80;;
14849;SDS011;7517;48.400;11.770;2023-05-07T04:06:41;2.97;;;1.60;;
14849;SDS011;7517;48.400;11.770;2023-05-07T04:09:08;1.93;;;1.80;;
14849;SDS011;7517;48.400;11.770;2023-05-07T04:11:37;2.40;;;1.63;;
14849;SDS011;7517;48.400;11.770;2023-05-07T04:14:05;1.70;;;1.60;;
14849;SDS011;7517;48.400;11.770;2023-05-07T04:16:32;2.00;;;1.90;;
14849;SDS011;7517;48.400;11.770;2023-05-07T04:19:00;1.87;;;1.67;;
14849;SDS011;7517;48.400;11.770;2023-05-07T04:21:28;1.83;;;1.70;;
14849;SDS011;7517;48.400;11.770;2023-05-07T04:23:55;1.70;;;1.60;;
14849;SDS011;7517;48.400;11.770;2023-05-07T04:26:23;1.93;;;1.80;;
14849;SDS011;7517;48.400;11.770;2023-05-07T04:28:57;1.63;;;1.53;;
14849;SDS011;7517;48.400;11.770;2023-05-07T04:31:25;2.20;;;1.80;;
14849;SDS011;7517;48.400;11.770;2023-05-07T04:33:53;1.93;;;1.80;;
14849;SDS011;7517;48.400;11.770;2023-05-07T04:36:22;2.40;;;1.90;;
14849;SDS011;7517;48.400;11.770;2023-05-07T04:38:52;2.63;;;1.63;;
14849;SDS011;7517;48.400;11.770;2023-05-07T04:41:19;1.60;;;1.50;;
14849;SDS011;7517;48.400;11.770;2023-05-07T04:43:46;1.80;;;1.70;;
14849;SDS011;7517;48.400;11.770;2023-05-07T04:46:15;2.33;;;1.70;;
14849;SDS011;7517;48.400;11.770;2023-05-07T04:48:44;1.53;;;1.43;;
14849;SDS011;7517;48.400;11.770;2023-05-07T04:51:12;3.03;;;1.63;;
14849;SDS011;7517;48.400;11.770;2023-05-07T04:53:40;2.00;;;1.90;;
14849;SDS011;7517;48.400;11.770;2023-05-07T04:56:08;2.77;;;2.13;;
14849;SDS011;7517;48.400;11.770;2023-05-07T04:58:36;2.23;;;1.97;;
14849;SDS011;7517;48.400;11.770;2023-05-07T05:01:03;2.10;;;2.00;;
14849;SDS011;7517;48.400;11.770;2023-05-07T05:03:32;2.73;;;2.23;;
14849;SDS011;7517;48.400;11.770;2023-05-07T05:05:59;2.07;;;1.97;;
14849;SDS011;7517;48.400;11.770;2023-05-07T05:08:27;2.90;;;2.20;;
14849;SDS011;7517;48.400;11.770;2023-05-07T05:10:57;2.30;;;2.20;;
14849;SDS011;7517;48.400;11.770;2023-05-07T05:13:24;2.30;;;2.20;;
14849;SDS011;7517;48.400;11.770;2023-05-07T05:15:52;2.43;;;2.23;;
14849;SDS011;7517;48.400;11.770;2023-05-07T05:18:19;2.07;;;1.97;;
14849;SDS011;7517;48.400;11.770;2023-05-07T05:20:48;3.20;;;2.90;;
14849;SDS011;7517;48.400;11.770;2023-05-07T05:23:15;2.80;;;2.60;;
14849;SDS011;7517;48.400;11.770;2023-05-07T05:25:42;2.73;;;2.53;;
14849;SDS011;7517;48.400;11.770;2023-05-07T05:28:10;2.70;;;2.50;;
14849;SDS011;7517;48.400;11.770;2023-05-07T05:30:38;2.80;;;2.60;;
14849;SDS011;7517;48.400;11.770;2023-05-07T05:33:05;2.80;;;2.60;;
14849;SDS011;7517;48.400;11.770;2023-05-07T05:35:33;3.57;;;2.60;;
14849;SDS011;7517;48.400;11.770;2023-05-07T05:38:02;3.97;;;2.50;;
14849;SDS011;7517;48.400;11.770;2023-05-07T05:40:29;2.93;;;2.70;;
14849;SDS011;7517;48.400;11.770;2023-05-07T05:42:57;2.50;;;2.30;;
14849;SDS011;7517;48.400;11.770;2023-05-07T05:45:24;2.90;;;2.70;;
14849;SDS011;7517;48.400;11.770;2023-05-07T05:47:52;2.43;;;2.23;;
14849;SDS011;7517;48.400;11.770;2023-05-07T05:50:19;2.30;;;2.10;;
14849;SDS011;7517;48.400;11.770;2023-05-07T05:52:46;2.80;;;2.60;;
14849;SDS011;7517;48.400;11.770;2023-05-07T05:55:15;2.50;;;2.40;;
14849;SDS011;7517;48.400;11.770;2023-05-07T05:57:43;2.53;;;2.33;;
14849;SDS011;7517;48.400;11.770;2023-05-07T06:00:11;2.60;;;2.40;;
14849;SDS011;7517;48.400;11.770;2023-05-07T06:02:39;2.80;;;2.30;;
14849;SDS011;7517;48.400;11.770;2023-05-07T06:05:09;2.63;;;2.43;;
14849;SDS011;7517;48.400;11.770;2023-05-07T06:07:36;2.47;;;2.27;;
14849;SDS011;7517;48.400;11.770;2023-05-07T06:10:04;2.80;;;2.60;;
14849;SDS011;7517;48.400;11.770;2023-05-07T06:12:34;2.60;;;2.40;;
14849;SDS011;7517;48.400;11.770;2023-05-07T06:15:01;2.87;;;2.67;;
14849;SDS011;7517;48.400;11.770;2023-05-07T06:17:30;2.87;;;2.67;;
14849;SDS011;7517;48.400;11.770;2023-05-07T06:19:57;3.80;;;2.97;;
14849;SDS011;7517;48.400;11.770;2023-05-07T06:22:24;2.90;;;2.70;;
14849;SDS011;7517;48.400;11.770;2023-05-07T06:24:52;2.67;;;2.50;;
14849;SDS011;7517;48.400;11.770;2023-05-07T06:27:20;4.03;;;3.13;;
14849;SDS011;7517;48.400;11.770;2023-05-07T06:29:49;3.37;;;3.17;;
14849;SDS011;7517;48.400;11.770;2023-05-07T06:32:16;3.03;;;2.67;;
14849;SDS011;7517;48.400;11.770;2023-05-07T06:34:44;3.17;;;2.97;;
14849;SDS011;7517;48.400;11.770;2023-05-07T06:37:12;3.67;;;3.37;;
14849;SDS011;7517;48.400;11.770;2023-05-07T06:39:39;3.83;;;3.53;;
14849;SDS011;7517;48.400;11.770;2023-05-07T06:42:07;3.40;;;3.10;;
14849;SDS011;7517;48.400;11.770;2023-05-07T06:44:35;3.83;;;3.47;;
14849;SDS011;7517;48.400;11.770;2023-05-07T06:47:03;4.80;;;4.10;;
14849;SDS011;7517;48.400;11.770;2023-05-07T06:49:31;4.37;;;3.97;;
14849;SDS011;7517;48.400;11.770;2023-05-07T06:51:58;4.50;;;4.10;;
14849;SDS011;7517;48.400;11.770;2023-05-07T06:54:26;3.77;;;3.47;;
14849;SDS011;7517;48.400;11.770;2023-05-07T06:56:53;4.70;;;4.30;;
14849;SDS011;7517;48.400;11.770;2023-05-07T06:59:21;4.07;;;3.77;;
14849;SDS011;7517;48.400;11.770;2023-05-07T07:01:49;4.40;;;4.00;;
14849;SDS011;7517;48.400;11.770;2023-05-07T07:04:18;4.30;;;4.00;;
14849;SDS011;7517;48.400;11.770;2023-05-07T07:06:47;4.40;;;4.10;;
14849;SDS011;7517;48.400;11.770;2023-05-07T07:09:14;4.67;;;4.30;;
14849;SDS011;7517;48.400;11.770;2023-05-07T07:11:41;4.87;;;4.43;;
14849;SDS011;7517;48.400;11.770;2023-05-07T07:14:09;4.67;;;4.37;;
14849;SDS011;7517;48.400;11.770;2023-05-07T07:16:36;4.70;;;4.30;;
14849;SDS011;7517;48.400;11.770;2023-05-07T07:19:03;4.60;;;4.23;;
14849;SDS011;7517;48.400;11.770;2023-05-07T07:21:32;4.27;;;3.97;;
14849;SDS011;7517;48.400;11.770;2023-05-07T07:23:59;4.50;;;4.10;;
14849;SDS011;7517;48.400;11.770;2023-05-07T07:26:27;4.77;;;4.37;;
14849;SDS011;7517;48.400;11.770;2023-05-07T07:28:54;4.10;;;3.80;;
14849;SDS011;7517;48.400;11.770;2023-05-07T07:31:21;4.10;;;3.80;;
14849;SDS011;7517;48.400;11.770;2023-05-07T07:33:48;4.53;;;4.13;;
14849;SDS011;7517;48.400;11.770;2023-05-07T07:36:16;4.07;;;3.83;;
14849;SDS011;7517;48.400;11.770;2023-05-07T07:38:45;3.93;;;3.63;;
14849;SDS011;7517;48.400;11.770;2023-05-07T07:41:12;4.03;;;3.73;;
14849;SDS011;7517;48.400;11.770;2023-05-07T07:43:39;3.80;;;3.60;;
14849;SDS011;7517;48.400;11.770;2023-05-07T07:46:07;4.30;;;4.00;;
14849;SDS011;7517;48.400;11.770;2023-05-07T07:48:34;4.10;;;3.67;;
14849;SDS011;7517;48.400;11.770;2023-05-07T07:51:02;4.17;;;3.87;;
14849;SDS011;7517;48.400;11.770;2023-05-07T07:53:30;3.93;;;3.47;;
14849;SDS011;7517;48.400;11.770;2023-05-07T07:56:00;4.40;;;4.00;;
14849;SDS011;7517;48.400;11.770;2023-05-07T07:58:28;4.27;;;3.97;;
14849;SDS011;7517;48.400;11.770;2023-05-07T08:00:55;3.47;;;3.27;;
14849;SDS011;7517;48.400;11.770;2023-05-07T08:03:22;3.43;;;3.23;;
14849;SDS011;7517;48.400;11.770;2023-05-07T08:05:50;4.23;;;3.43;;
14849;SDS011;7517;48.400;11.770;2023-05-07T08:08:17;3.00;;;2.80;;
14849;SDS011;7517;48.400;11.770;2023-05-07T08:10:44;3.03;;;2.83;;
14849;SDS011;7517;48.400;11.770;2023-05-07T08:13:17;3.07;;;2.70;;
14849;SDS011;7517;48.400;11.770;2023-05-07T08:15:44;3.57;;;3.27;;
14849;SDS011;7517;48.400;11.770;2023-05-07T08:18:12;3.50;;;3.30;;
14849;SDS011;7517;48.400;11.770;2023-05-07T08:20:40;2.93;;;2.73;;
14849;SDS011;7517;48.400;11.770;2023-05-07T08:23:07;3.37;;;3.07;;
14849;SDS011;7517;48.400;11.770;2023-05-07T08:25:35;3.20;;;3.00;;
14849;SDS011;7517;48.400;11.770;2023-05-07T08:28:02;2.70;;;2.50;;
14849;SDS011;7517;48.400;11.770;2023-05-07T08:30:31;2.80;;;2.70;;
14849;SDS011;7517;48.400;11.770;2023-05-07T08:32:59;2.60;;;2.40;;
14849;SDS011;7517;48.400;11.770;2023-05-07T08:35:26;2.47;;;2.37;;
14849;SDS011;7517;48.400;11.770;2023-05-07T08:37:54;2.60;;;2.40;;
14849;SDS011;7517;48.400;11.770;2023-05-07T08:40:22;2.80;;;2.60;;
14849;SDS011;7517;48.400;11.770;2023-05-07T08:42:52;2.93;;;2.50;;
14849;SDS011;7517;48.400;11.770;2023-05-07T08:45:20;2.33;;;2.13;;
14849;SDS011;7517;48.400;11.770;2023-05-07T08:47:51;2.60;;;2.40;;
14849;SDS011;7517;48.400;11.770;2023-05-07T08:50:24;2.30;;;2.10;;
14849;SDS011;7517;48.400;11.770;2023-05-07T08:52:51;1.90;;;1.80;;
14849;SDS011;7517;48.400;11.770;2023-05-07T08:55:19;2.17;;;2.07;;
14849;SDS011;7517;48.400;11.770;2023-05-07T08:57:47;2.33;;;2.17;;
14849;SDS011;7517;48.400;11.770;2023-05-07T09:00:18;3.27;;;1.80;;
14849;SDS011;7517;48.400;11.770;2023-05-07T09:02:45;1.70;;;1.60;;
14849;SDS011;7517;48.400;11.770;2023-05-07T09:05:14;1.97;;;1.77;;
14849;SDS011;7517;48.400;11.770;2023-05-07T09:07:41;1.97;;;1.87;;
14849;SDS011;7517;48.400;11.770;2023-05-07T09:10:09;1.73;;;1.63;;
14849;SDS011;7517;48.400;11.770;2023-05-07T09:12:37;1.50;;;1.30;;
14849;SDS011;7517;48.400;11.770;2023-05-07T09:15:04;1.50;;;1.40;;
14849;SDS011;7517;48.400;11.770;2023-05-07T09:17:33;1.75;;;1.65;;
14849;SDS011;7517;48.400;11.770;2023-05-07T09:20:04;1.60;;;1.50;;
14849;SDS011;7517;48.400;11.770;2023-05-07T09:22:35;1.60;;;1.50;;
14849;SDS011;7517;48.400;11.770;2023-05-07T09:25:04;1.20;;;1.20;;
14849;SDS011;7517;48.400;11.770;2023-05-07T09:27:34;4.43;;;1.20;;
14849;SDS011;7517;48.400;11.770;2023-05-07T09:30:03;1.23;;;1.13;;
14849;SDS011;7517;48.400;11.770;2023-05-07T09:32:34;1.10;;;1.10;;
14849;SDS011;7517;48.400;11.770;2023-05-07T09:35:03;1.40;;;1.30;;
14849;SDS011;7517;48.400;11.770;2023-05-07T09:37:35;1.65;;;1.33;;
14849;SDS011;7517;48.400;11.770;2023-05-07T09:40:03;1.65;;;1.55;;
14849;SDS011;7517;48.400;11.770;2023-05-07T09:42:32;1.55;;;1.45;;
14849;SDS011;7517;48.400;11.770;2023-05-07T09:45:00;1.60;;;1.50;;
14849;SDS011;7517;48.400;11.770;2023-05-07T09:47:27;2.72;;;1.30;;
14849;SDS011;7517;48.400;11.770;2023-05-07T09:50:05;1.20;;;1.20;;
14849;SDS011;7517;48.400;11.770;2023-05-07T09:52:40;1.60;;;1.50;;
14849;SDS011;7517;48.400;11.770;2023-05-07T09:55:15;2.70;;;1.25;;
14849;SDS011;7517;48.400;11.770;2023-05-07T09:57:48;1.88;;;1.63;;
14849;SDS011;7517;48.400;11.770;2023-05-07T10:00:19;1.30;;;1.30;;
14849;SDS011;7517;48.400;11.770;2023-05-07T10:02:48;1.50;;;1.40;;
14849;SDS011;7517;48.400;11.770;2023-05-07T10:05:19;1.65;;;1.20;;
14849;SDS011;7517;48.400;11.770;2023-05-07T10:07:50;2.22;;;1.40;;
14849;SDS011;7517;48.400;11.770;2023-05-07T10:10:19;1.80;;;1.55;;
14849;SDS011;7517;48.400;11.770;2023-05-07T10:12:48;1.60;;;1.50;;
14849;SDS011;7517;48.400;11.770;2023-05-07T10:15:17;1.30;;;1.20;;
14849;SDS011;7517;48.400;11.770;2023-05-07T10:17:46;1.33;;;1.23;;
14849;SDS011;7517;48.400;11.770;2023-05-07T10:20:16;1.52;;;1.42;;
14849;SDS011;7517;48.400;11.770;2023-05-07T10:22:44;1.10;;;0.90;;
14849;SDS011;7517;48.400;11.770;2023-05-07T10:25:16;1.13;;;1.13;;
14849;SDS011;7517;48.400;11.770;2023-05-07T10:27:47;1.02;;;1.02;;
14849;SDS011;7517;48.400;11.770;2023-05-07T10:30:20;1.10;;;0.95;;
14849;SDS011;7517;48.400;11.770;2023-05-07T10:32:56;1.38;;;1.38;;
14849;SDS011;7517;48.400;11.770;2023-05-07T10:35:31;1.40;;;1.30;;
14849;SDS011;7517;48.400;11.770;2023-05-07T10:38:05;1.00;;;1.00;;
14849;SDS011;7517;48.400;11.770;2023-05-07T10:40:36;1.35;;;1.25;;
14849;SDS011;7517;48.400;11.770;2023-05-07T10:43:04;0.73;;;0.73;;
14849;SDS011;7517;48.400;11.770;2023-05-07T10:45:32;1.00;;;1.00;;
14849;SDS011;7517;48.400;11.770;2023-05-07T10:48:10;1.48;;;1.35;;
14849;SDS011;7517;48.400;11.770;2023-05-07T10:50:39;1.80;;;1.70;;
14849;SDS011;7517;48.400;11.770;2023-05-07T11:01:59;1.05;;;1.05;;
14849;SDS011;7517;48.400;11.770;2023-05-07T11:04:29;1.73;;;1.35;;
14849;SDS011;7517;48.400;11.770;2023-05-07T11:10:00;1.63;;;1.30;;
14849;SDS011;7517;48.400;11.770;2023-05-07T11:12:53;1.50;;;1.40;;
14849;SDS011;7517;48.400;11.770;2023-05-07T11:15:34;1.83;;;0.93;;
14849;SDS011;7517;48.400;11.770;2023-05-07T11:18:04;1.30;;;1.20;;
14849;SDS011;7517;48.400;11.770;2023-05-07T11:20:54;1.20;;;1.10;;
14849;SDS011;7517;48.400;11.770;2023-05-07T11:26:43;1.38;;;1.20;;
14849;SDS011;7517;48.400;11.770;2023-05-07T11:29:15;1.25;;;1.15;;
14849;SDS011;7517;48.400;11.770;2023-05-07T11:31:47;1.42;;;0.90;;
14849;SDS011;7517;48.400;11.770;2023-05-07T11:34:20;1.33;;;1.10;;
14849;SDS011;7517;48.400;11.770;2023-05-07T11:36:53;1.20;;;1.10;;
14849;SDS011;7517;48.400;11.770;2023-05-07T11:39:26;1.35;;;0.88;;
14849;SDS011;7517;48.400;11.770;2023-05-07T11:41:56;1.10;;;1.00;;
14849;SDS011;7517;48.400;11.770;2023-05-07T11:44:26;1.17;;;1.17;;
14849;SDS011;7517;48.400;11.770;2023-05-07T11:47:09;1.98;;;1.10;;
14849;SDS011;7517;48.400;11.770;2023-05-07T11:49:37;1.20;;;1.10;;
14849;SDS011;7517;48.400;11.770;2023-05-07T11:52:06;1.70;;;1.23;;
14849;SDS011;7517;48.400;11.770;2023-05-07T11:54:35;1.53;;;1.20;;
14849;SDS011;7517;48.400;11.770;2023-05-07T11:57:03;1.07;;;0.90;;
14849;SDS011;7517;48.400;11.770;2023-05-07T11:59:39;1.10;;;0.70;;
14849;SDS011;7517;48.400;11.770;2023-05-07T12:02:07;0.80;;;0.80;;
14849;SDS011;7517;48.400;11.770;2023-05-07T12:04:41;0.90;;;0.90;;
14849;SDS011;7517;48.400;11.770;2023-05-07T12:07:11;0.93;;;0.93;;
14849;SDS011;7517;48.400;11.770;2023-05-07T12:09:39;0.93;;;0.93;;
14849;SDS011;7517;48.400;11.770;2023-05-07T12:12:06;0.80;;;0.80;;
14849;SDS011;7517;48.400;11.770;2023-05-07T12:14:38;0.77;;;0.77;;
14849;SDS011;7517;48.400;11.770;2023-05-07T12:17:07;0.80;;;0.80;;
14849;SDS011;7517;48.400;11.770;2023-05-07T12:19:35;0.83;;;0.80;;
14849;SDS011;7517;48.400;11.770;2023-05-07T12:22:04;0.70;;;0.70;;
14849;SDS011;7517;48.400;11.770;2023-05-07T12:24:42;0.85;;;0.75;;
14849;SDS011;7517;48.400;11.770;2023-05-07T12:27:11;0.80;;;0.80;;
14849;SDS011;7517;48.400;11.770;2023-05-07T12:29:41;1.03;;;0.90;;
14849;SDS011;7517;48.400;11.770;2023-05-07T12:32:16;0.65;;;0.65;;
14849;SDS011;7517;48.400;11.770;2023-05-07T12:34:47;0.60;;;0.60;;
14849;SDS011;7517;48.400;11.770;2023-05-07T12:37:22;1.73;;;0.90;;
14849;SDS011;7517;48.400;11.770;2023-05-07T12:40:03;1.10;;;1.00;;
14849;SDS011;7517;48.400;11.770;2023-05-07T12:42:32;0.97;;;0.90;;
14849;SDS011;7517;48.400;11.770;2023-05-07T12:45:08;1.23;;;0.77;;
14849;SDS011;7517;48.400;11.770;2023-05-07T12:47:36;0.53;;;0.53;;
14849;SDS011;7517;48.400;11.770;2023-05-07T12:50:05;0.57;;;0.57;;
14849;SDS011;7517;48.400;11.770;2023-05-07T12:52:33;0.70;;;0.70;;
14849;SDS011;7517;48.400;11.770;2023-05-07T12:55:05;1.33;;;0.97;;
14849;SDS011;7517;48.400;11.770;2023-05-07T12:57:38;1.00;;;0.70;;
14849;SDS011;7517;48.400;11.770;2023-05-07T13:00:06;0.70;;;0.70;;
14849;SDS011;7517;48.400;11.770;2023-05-07T13:02:37;0.65;;;0.50;;
14849;SDS011;7517;48.400;11.770;2023-05-07T13:05:06;0.83;;;0.60;;
14849;SDS011;7517;48.400;11.770;2023-05-07T13:07:34;1.40;;;0.70;;
14849;SDS011;7517;48.400;11.770;2023-05-07T13:10:02;1.27;;;0.77;;
14849;SDS011;7517;48.400;11.770;2023-05-07T13:12:31;0.75;;;0.75;;
14849;SDS011;7517;48.400;11.770;2023-05-07T13:14:58;0.80;;;0.80;;
14849;SDS011;7517;48.400;11.770;2023-05-07T13:17:27;0.83;;;0.70;;
14849;SDS011;7517;48.400;11.770;2023-05-07T13:19:56;0.80;;;0.80;;
14849;SDS011;7517;48.400;11.770;2023-05-07T13:22:23;0.80;;;0.80;;
14849;SDS011;7517;48.400;11.770;2023-05-07T13:24:50;1.07;;;0.67;;
14849;SDS011;7517;48.400;11.770;2023-05-07T13:27:17;2.00;;;0.98;;
14849;SDS011;7517;48.400;11.770;2023-05-07T13:29:45;0.98;;;0.98;;
14849;SDS011;7517;48.400;11.770;2023-05-07T13:32:12;0.80;;;0.80;;
14849;SDS011;7517;48.400;11.770;2023-05-07T13:34:41;1.50;;;0.80;;
14849;SDS011;7517;48.400;11.770;2023-05-07T13:37:08;1.70;;;1.00;;
14849;SDS011;7517;48.400;11.770;2023-05-07T13:39:36;0.67;;;0.60;;
14849;SDS011;7517;48.400;11.770;2023-05-07T13:42:03;0.77;;;0.77;;
14849;SDS011;7517;48.400;11.770;2023-05-07T13:44:30;0.97;;;0.67;;
14849;SDS011;7517;48.400;11.770;2023-05-07T13:46:58;1.40;;;0.53;;
14849;SDS011;7517;48.400;11.770;2023-05-07T13:49:25;0.73;;;0.73;;
14849;SDS011;7517;48.400;11.770;2023-05-07T13:51:54;0.80;;;0.80;;
14849;SDS011;7517;48.400;11.770;2023-05-07T13:54:22;0.80;;;0.80;;
14849;SDS011;7517;48.400;11.770;2023-05-07T13:56:49;0.60;;;0.60;;
14849;SDS011;7517;48.400;11.770;2023-05-07T13:59:17;0.93;;;0.93;;
14849;SDS011;7517;48.400;11.770;2023-05-07T14:01:44;0.80;;;0.80;;
14849;SDS011;7517;48.400;11.770;2023-05-07T14:04:12;0.70;;;0.70;;
14849;SDS011;7517;48.400;11.770;2023-05-07T14:06:39;1.27;;;0.70;;
14849;SDS011;7517;48.400;11.770;2023-05-07T14:09:08;0.70;;;0.63;;
14849;SDS011;7517;48.400;11.770;2023-05-07T14:11:38;0.50;;;0.50;;
14849;SDS011;7517;48.400;11.770;2023-05-07T14:14:05;1.75;;;0.77;;
14849;SDS011;7517;48.400;11.770;2023-05-07T14:16:32;0.60;;;0.60;;
14849;SDS011;7517;48.400;11.770;2023-05-07T14:19:00;0.60;;;0.60;;
14849;SDS011;7517;48.400;11.770;2023-05-07T14:21:27;1.33;;;0.60;;
14849;SDS011;7517;48.400;11.770;2023-05-07T14:23:55;0.77;;;0.50;;
14849;SDS011;7517;48.400;11.770;2023-05-07T14:26:24;0.60;;;0.60;;
14849;SDS011;7517;48.400;11.770;2023-05-07T14:28:53;0.60;;;0.60;;
14849;SDS011;7517;48.400;11.770;2023-05-07T14:31:23;0.50;;;0.50;;
14849;SDS011;7517;48.400;11.770;2023-05-07T14:33:50;0.50;;;0.50;;
14849;SDS011;7517;48.400;11.770;2023-05-07T14:36:18;0.70;;;0.70;;
14849;SDS011;7517;48.400;11.770;2023-05-07T14:38:47;0.50;;;0.50;;
14849;SDS011;7517;48.400;11.770;2023-05-07T14:41:15;0.77;;;0.73;;
14849;SDS011;7517;48.400;11.770;2023-05-07T14:43:44;0.60;;;0.60;;
14849;SDS011;7517;48.400;11.770;2023-05-07T14:46:15;0.57;;;0.57;;
14849;SDS011;7517;48.400;11.770;2023-05-07T14:48:43;0.40;;;0.40;;
14849;SDS011;7517;48.400;11.770;2023-05-07T14:51:12;1.07;;;0.63;;
14849;SDS011;7517;48.400;11.770;2023-05-07T14:53:40;0.40;;;0.40;;
14849;SDS011;7517;48.400;11.770;2023-05-07T14:56:08;0.50;;;0.50;;
14849;SDS011;7517;48.400;11.770;2023-05-07T14:58:35;0.93;;;0.70;;
14849;SDS011;7517;48.400;11.770;2023-05-07T15:01:04;1.67;;;0.90;;
14849;SDS011;7517;48.400;11.770;2023-05-07T15:03:31;0.70;;;0.70;;
14849;SDS011;7517;48.400;11.770;2023-05-07T15:05:59;0.50;;;0.50;;
14849;SDS011;7517;48.400;11.770;2023-05-07T15:08:26;0.70;;;0.70;;
14849;SDS011;7517;48.400;11.770;2023-05-07T15:10:53;0.60;;;0.60;;
14849;SDS011;7517;48.400;11.770;2023-05-07T15:13:22;2.40;;;0.63;;